M I D A S
Marine Information and Data Acquisition System
Tripno 1491 of the Zeeleeuw from 2008-05-23 06:41:36 to 2008-05-23 13:12:48
Back to CruiseResearch ActivitiesStationsMapUnderway DataData graphs

EquipmentUnitsComment
TimeDGPSUTC
LatitudeDGPSDM.mWGS84
LongitudeDGPSDM.mWGS84
HeadingGyrodeg 
SOGDGPSknotsSpeed over ground
COGDGPSdegCourse over ground
DepthEcho soundermeters200 kHz
Missing or incorrect values are displayed as -999
Navigation data collected by the RV Zeeleeuw from 2008-05-23 06:42:27 to 2008-05-23 13:19:42
Time Latitude Longitude Heading SOG COG Depth
2008-05-23 06:43:32 51°13.623 2°56.043 107.3 1.1 286 6.7
2008-05-23 06:44:32 51°13.641 2°55.964 110.3 4.1 290 -999
2008-05-23 06:45:33 51°13.678 2°55.854 123.8 5 302 -999
2008-05-23 06:46:33 51°13.735 2°55.75 140 5.1 318 -999
2008-05-23 06:47:32 51°13.802 2°55.669 149.5 5.3 327 -999
2008-05-23 06:48:32 51°13.883 2°55.634 187.8 4.9 2 -999
2008-05-23 06:49:32 51°13.934 2°55.653 229.9 1.1 263 10.4
2008-05-23 06:50:32 51°13.974 2°55.555 322.2 6.9 325 9.9
2008-05-23 06:51:32 51°14.1 2°55.444 335.2 10 332 9.8
2008-05-23 06:52:32 51°14.253 2°55.273 321.7 12 319 9.7
2008-05-23 06:53:32 51°14.39 2°55.041 312.4 12.2 314 10
2008-05-23 06:54:33 51°14.563 2°54.856 340.4 12.2 334 9
2008-05-23 06:55:32 51°14.741 2°54.715 341.2 12.1 333 8.9
2008-05-23 06:56:32 51°14.919 2°54.564 338.7 12.1 332 8.6
2008-05-23 06:57:32 51°15.095 2°54.417 338.7 11.9 333 7.8
2008-05-23 06:58:32 51°15.275 2°54.27 338.1 12.2 332 8.3
2008-05-23 06:59:31 51°15.453 2°54.124 338.7 12.3 333 9
2008-05-23 07:00:30 51°15.629 2°53.968 336.9 12.3 331 9.8
2008-05-23 07:01:29 51°15.806 2°53.813 340.3 12.3 333 10
2008-05-23 07:02:29 51°15.984 2°53.649 336.9 12.3 331 10.4
2008-05-23 07:03:29 51°16.16 2°53.476 332.8 12.5 326 10.6
2008-05-23 07:04:29 51°16.333 2°53.291 333.1 12.5 326 10.8
2008-05-23 07:05:29 51°16.506 2°53.108 332.8 12.5 327 10.9
2008-05-23 07:06:29 51°16.68 2°52.927 333.2 12.5 327 10.4
2008-05-23 07:07:29 51°16.854 2°52.75 333 12.4 327 8.5
2008-05-23 07:08:29 51°17.027 2°52.573 333 12.3 327 8.9
2008-05-23 07:09:29 51°17.217 2°52.466 352.9 12.2 348 9
2008-05-23 07:10:29 51°17.415 2°52.4 352.9 12.1 349 9.5
2008-05-23 07:11:29 51°17.615 2°52.353 357.7 12 353 9.5
2008-05-23 07:12:29 51°17.814 2°52.322 2 12 355 9.6
2008-05-23 07:13:29 51°18.013 2°52.285 357 12 350 9.8
2008-05-23 07:14:29 51°18.21 2°52.225 355.9 12.2 349 10.1
2008-05-23 07:15:29 51°18.408 2°52.167 356.8 12.1 350 10.5
2008-05-23 07:16:29 51°18.606 2°52.108 356.9 12 350 11.3
2008-05-23 07:17:29 51°18.805 2°52.047 356.4 12.1 349 12.3
2008-05-23 07:18:29 51°19.004 2°51.99 357.1 12.2 350 13.3
2008-05-23 07:19:29 51°19.205 2°51.937 358.2 12.3 351 14.3
2008-05-23 07:20:29 51°19.406 2°51.888 358 12.3 351 14.6
2008-05-23 07:21:29 51°19.608 2°51.844 0.2 12.2 352 14.8
2008-05-23 07:22:29 51°19.807 2°51.794 0.1 12.1 353 14.8
2008-05-23 07:23:29 51°20.007 2°51.754 0.1 12.2 353 14.1
2008-05-23 07:24:29 51°20.209 2°51.729 2.8 12.2 355 12.1
2008-05-23 07:25:29 51°20.411 2°51.69 0.1 12.3 352 12.4
2008-05-23 07:26:29 51°20.616 2°51.647 359.2 12.4 352 14
2008-05-23 07:27:29 51°20.82 2°51.591 355.6 12.5 348 15.2
2008-05-23 07:28:29 51°21.025 2°51.539 359 12.4 353 17.5
2008-05-23 07:29:29 51°21.231 2°51.504 0.6 12.4 354 20.1
2008-05-23 07:30:29 51°21.436 2°51.47 0.2 12.3 354 22.2
2008-05-23 07:31:29 51°21.636 2°51.448 4.4 12 358 23
2008-05-23 07:32:29 51°21.835 2°51.419 0.6 12.1 354 23.1
2008-05-23 07:33:29 51°22.035 2°51.371 356.6 12.1 349 22.6
2008-05-23 07:34:29 51°22.234 2°51.318 359.9 12.1 353 22.2
2008-05-23 07:35:29 51°22.436 2°51.277 359.9 12.3 353 21.9
2008-05-23 07:36:29 51°22.639 2°51.224 356.2 12.4 350 21.8
2008-05-23 07:37:29 51°22.843 2°51.173 357.9 12.4 352 21.1
2008-05-23 07:38:29 51°23.045 2°51.131 358.5 12.2 352 14.2
2008-05-23 07:39:29 51°23.246 2°51.088 358.5 12.2 353 12.5
2008-05-23 07:40:29 51°23.447 2°51.052 -999 12.1 355 14.9
2008-05-23 07:41:29 51°23.649 2°51.028 1.5 12.2 355 17.2
2008-05-23 07:42:29 51°23.852 2°50.988 358.8 12.3 352 19.2
2008-05-23 07:43:29 51°24.055 2°50.938 355.7 12.3 349 20.3
2008-05-23 07:44:29 51°24.258 2°50.884 358.5 12.3 351 21
2008-05-23 07:45:29 51°24.459 2°50.827 358.1 12.3 352 21.3
2008-05-23 07:46:29 51°24.661 2°50.775 355.9 12.2 350 21.6
2008-05-23 07:47:29 51°24.86 2°50.731 0.6 12.1 353 21.8
2008-05-23 07:48:29 51°25.059 2°50.674 357.9 12.1 350 21.9
2008-05-23 07:49:29 51°25.258 2°50.621 358.4 12.1 351 22.2
2008-05-23 07:50:29 51°25.457 2°50.571 358.3 12.2 352 22.4
2008-05-23 07:51:29 51°25.658 2°50.539 0.6 12.1 355 22.3
2008-05-23 07:52:29 51°25.861 2°50.509 1.3 12.3 355 22.3
2008-05-23 07:53:29 51°26.064 2°50.473 357.7 12.3 351 22.4
2008-05-23 07:54:29 51°26.265 2°50.434 0.9 12.2 354 22.2
2008-05-23 07:55:29 51°26.467 2°50.402 0.4 12.1 354 22.1
2008-05-23 07:56:29 51°26.668 2°50.367 -999 12.2 354 20.8
2008-05-23 07:57:29 51°26.87 2°50.327 358.1 12.2 352 17.1
2008-05-23 07:58:29 51°27.069 2°50.276 357.2 12.2 351 19.5
2008-05-23 07:59:29 51°27.269 2°50.229 357.7 12.1 352 21.8
2008-05-23 08:00:29 51°27.469 2°50.187 358.4 12.3 353 23.4
2008-05-23 08:01:29 51°27.672 2°50.146 359.1 12.2 353 24.6
2008-05-23 08:02:29 51°27.875 2°50.108 359.1 12.3 354 27.7
2008-05-23 08:03:29 51°28.078 2°50.073 358.4 12.1 353 26.2
2008-05-23 08:04:29 51°28.278 2°50.045 2.1 12.1 355 26.1
2008-05-23 08:05:29 51°28.478 2°50.003 357 12.1 351 26.3
2008-05-23 08:06:29 51°28.678 2°49.955 359 12.2 354 26.6
2008-05-23 08:07:29 51°28.879 2°49.92 358.9 12.2 352 26.8
2008-05-23 08:08:29 51°29.079 2°49.869 357 12.2 351 30.2
2008-05-23 08:09:29 51°29.283 2°49.823 357.6 12.4 352 28.1
2008-05-23 08:10:29 51°29.486 2°49.78 357.9 12.3 353 28.2
2008-05-23 08:11:29 51°29.691 2°49.755 6.3 12.1 4 25.4
2008-05-23 08:12:29 51°29.87 2°49.879 36.2 11.7 36 25.8
2008-05-23 08:13:29 51°30.02 2°50.076 42.1 11.5 41 19
2008-05-23 08:14:29 51°30.163 2°50.28 40.9 11.5 41 21.9
2008-05-23 08:15:29 51°30.302 2°50.49 50.7 11.5 53 21.6
2008-05-23 08:16:29 51°30.41 2°50.742 54.3 11.5 56 20.7
2008-05-23 08:17:29 51°30.521 2°50.994 53.9 11.6 56 20.7
2008-05-23 08:18:29 51°30.622 2°51.257 63.1 11.6 67 20.4
2008-05-23 08:19:29 51°30.676 2°51.557 72.1 11.7 73 19.3
2008-05-23 08:20:29 51°30.733 2°51.855 71.8 11.7 74 18.2
2008-05-23 08:21:29 51°30.79 2°52.154 68.1 11.8 70 19.4
2008-05-23 08:22:29 51°30.844 2°52.454 72.6 11.7 76 16.2
2008-05-23 08:23:29 51°30.885 2°52.759 75 11.7 78 15.4
2008-05-23 08:24:29 51°30.924 2°53.063 75 11.6 79 18.6
2008-05-23 08:25:29 51°30.955 2°53.369 75.6 11.7 79 17.9
2008-05-23 08:26:29 51°30.991 2°53.671 76.4 11.6 81 18.5
2008-05-23 08:27:29 51°31.021 2°53.972 76.3 11.4 81 18.1
2008-05-23 08:28:29 51°31.049 2°54.273 79 11.4 83 16.7
2008-05-23 08:29:29 51°31.073 2°54.575 77.2 11.2 81 17.4
2008-05-23 08:30:29 51°31.103 2°54.873 75.9 11.2 81 16.1
2008-05-23 08:31:29 51°31.129 2°55.172 76.4 11.3 80 17.7
2008-05-23 08:32:29 51°31.157 2°55.471 76.7 11.3 82 15.9
2008-05-23 08:33:29 51°31.187 2°55.769 76.3 11.3 80 18.4
2008-05-23 08:34:29 51°31.215 2°56.068 77.5 11.3 80 21.6
2008-05-23 08:35:29 51°31.246 2°56.366 76.7 11.4 80 29.9
2008-05-23 08:36:29 51°31.276 2°56.664 78.1 11.3 82 29.1
2008-05-23 08:37:29 51°31.309 2°56.961 77.3 11.4 79 33
2008-05-23 08:38:29 51°31.352 2°57.257 74.4 11.3 76 31.9
2008-05-23 08:39:29 51°31.437 2°57.52 53.4 11.2 51 33.9
2008-05-23 08:40:29 51°31.559 2°57.748 51.3 11.2 50 32.5
2008-05-23 08:41:29 51°31.68 2°57.977 51.6 11.2 49 33.3
2008-05-23 08:42:29 51°31.812 2°58.187 47.1 11.2 46 33.9
2008-05-23 08:43:29 51°31.941 2°58.405 49.2 11.3 47 35.6
2008-05-23 08:44:29 51°32.074 2°58.618 46.3 11.2 43 34.8
2008-05-23 08:45:29 51°32.21 2°58.823 46.9 11.2 43 34.6
2008-05-23 08:46:29 51°32.344 2°59.03 47.3 11.2 45 33
2008-05-23 08:47:29 51°32.501 2°59.186 26.6 11.3 19 34.4
2008-05-23 08:48:29 51°32.681 2°59.271 23.5 11.2 17 31.7
2008-05-23 08:49:29 51°32.856 2°59.37 25.9 11.1 20 29.6
2008-05-23 08:50:29 51°33.027 2°59.487 28.1 11.2 22 22.7
2008-05-23 08:51:29 51°33.198 2°59.606 27.8 11.3 24 14.1
2008-05-23 08:52:29 51°33.372 2°59.716 24.2 11.2 21 11.6
2008-05-23 08:53:29 51°33.541 2°59.833 27.5 11.2 26 10.1
2008-05-23 08:54:29 51°33.711 2°59.961 28.2 11.2 25 12.3
2008-05-23 08:55:29 51°33.88 3°0.084 26.1 11.1 22 11.9
2008-05-23 08:56:29 51°34.053 3°0.187 24.3 11.1 21 13.6
2008-05-23 08:57:29 51°34.238 3°0.227 9.3 11.4 5 15.9
2008-05-23 08:58:29 51°34.428 3°0.237 6.1 11.4 -999 19.1
2008-05-23 08:59:29 51°34.617 3°0.198 351.3 11.7 342 19.9
2008-05-23 09:00:29 51°34.789 3°0.031 332.8 12.2 325 24.2
2008-05-23 09:01:29 51°34.956 2°59.84 330.8 12.4 323 26.5
2008-05-23 09:02:29 51°35.119 2°59.637 330.1 12.4 323 27.2
2008-05-23 09:03:29 51°35.282 2°59.431 327 12.5 319 27.5
2008-05-23 09:04:29 51°35.431 2°59.205 326.7 12.5 319 25
2008-05-23 09:05:29 51°35.551 2°58.932 298.5 13 289 31.8
2008-05-23 09:06:29 51°35.551 2°58.58 260.5 13.6 257 33.5
2008-05-23 09:07:29 51°35.46 2°58.247 239.7 13.8 240 31.7
2008-05-23 09:08:29 51°35.34 2°57.928 242.1 13.9 242 32.5
2008-05-23 09:09:29 51°35.22 2°57.607 238.7 14.1 238 34.2
2008-05-23 09:10:29 51°35.093 2°57.289 239 14.2 237 33.6
2008-05-23 09:11:29 51°34.97 2°56.968 239.9 14.1 240 32.2
2008-05-23 09:12:29 51°34.85 2°56.643 241.5 14.2 242 32.2
2008-05-23 09:13:29 51°34.736 2°56.311 241.1 14.3 240 32.4
2008-05-23 09:14:29 51°34.617 2°55.984 237.2 14.2 237 32
2008-05-23 09:15:29 51°34.475 2°55.682 232 14.3 233 30.2
2008-05-23 09:16:29 51°34.334 2°55.38 233.6 14.1 234 30.8
2008-05-23 09:17:29 51°34.191 2°55.076 233.3 14.1 232 28.9
2008-05-23 09:18:29 51°34.052 2°54.769 233.9 14.3 235 29.8
2008-05-23 09:19:29 51°33.914 2°54.459 235.5 14.3 235 28.4
2008-05-23 09:20:29 51°33.776 2°54.149 232.9 14.2 234 29.3
2008-05-23 09:21:29 51°33.639 2°53.837 235.3 14.3 236 29
2008-05-23 09:22:29 51°33.498 2°53.533 233.6 14.1 234 29.6
2008-05-23 09:23:29 51°33.356 2°53.229 234.3 14.1 231 29.4
2008-05-23 09:24:29 51°33.22 2°52.918 233.5 14.3 235 28.8
2008-05-23 09:25:29 51°33.081 2°52.612 234.2 14.2 234 29.2
2008-05-23 09:26:29 51°32.948 2°52.298 236.4 14.4 236 29.7
2008-05-23 09:27:29 51°32.813 2°51.986 234.8 14.2 235 29.4
2008-05-23 09:28:29 51°32.672 2°51.681 233.4 14.2 232 27.2
2008-05-23 09:29:29 51°32.532 2°51.375 233.5 14.1 232 27.6
2008-05-23 09:30:29 51°32.428 2°51.039 257.1 14.1 255 25.9
2008-05-23 09:31:29 51°32.384 2°50.675 265.2 13.7 265 29.3
2008-05-23 09:32:29 51°32.425 2°50.328 300 13 293 30.9
2008-05-23 09:33:29 51°32.558 2°50.074 328.6 12.3 320 30.7
2008-05-23 09:34:29 51°32.723 2°49.884 334.4 12.2 325 28.1
2008-05-23 09:35:29 51°32.886 2°49.688 333.8 12.3 325 30.3
2008-05-23 09:36:29 51°33.05 2°49.49 329.9 12.4 322 32.4
2008-05-23 09:37:29 51°33.216 2°49.295 331.8 12.3 323 34.2
2008-05-23 09:38:29 51°33.377 2°49.088 330.9 12.5 322 33.8
2008-05-23 09:39:29 51°33.546 2°48.898 337.3 12.3 329 37.3
2008-05-23 09:40:29 51°33.726 2°48.749 342 12.2 334 34.8
2008-05-23 09:41:29 51°33.909 2°48.609 342.8 12.2 335 30.9
2008-05-23 09:42:29 51°34.091 2°48.472 343.7 11.9 336 29.3
2008-05-23 09:43:29 51°34.274 2°48.356 347.2 11.8 339 25.4
2008-05-23 09:44:29 51°34.456 2°48.246 347.6 11.7 340 28
2008-05-23 09:45:29 51°34.639 2°48.14 348.3 11.6 341 26.4
2008-05-23 09:46:29 51°34.821 2°48.037 347.7 11.6 341 32.3
2008-05-23 09:47:29 51°35.005 2°47.938 349.3 11.6 342 28.1
2008-05-23 09:48:29 51°35.187 2°47.848 356.5 10.9 356 31.1
2008-05-23 09:49:29 51°35.313 2°48.012 48.5 10.5 52 33.9
2008-05-23 09:50:29 51°35.436 2°48.218 43.9 10.7 44 32.6
2008-05-23 09:51:29 51°35.56 2°48.429 49.3 10.9 51 30.3
2008-05-23 09:52:29 51°35.683 2°48.642 45.8 10.9 45 33
2008-05-23 09:53:29 51°35.81 2°48.847 45.2 10.8 45 29.2
2008-05-23 09:54:29 51°35.933 2°49.052 49 10.7 49 28.1
2008-05-23 09:55:29 51°36.048 2°49.272 49.2 10.8 50 34.1
2008-05-23 09:56:29 51°36.168 2°49.484 47.4 10.7 47 31.6
2008-05-23 09:57:29 51°36.29 2°49.69 47.3 10.6 47 29.1
2008-05-23 09:58:29 51°36.408 2°49.904 50 10.7 50 35.4
2008-05-23 09:59:29 51°36.523 2°50.11 48.8 10.6 47 30.4
2008-05-23 10:00:29 51°36.642 2°50.317 48.7 10.6 49 27.8
2008-05-23 10:01:29 51°36.758 2°50.529 47.8 10.6 47 33.8
2008-05-23 10:02:29 51°36.877 2°50.737 47.3 10.7 46 34.1
2008-05-23 10:03:29 51°36.999 2°50.945 47.3 10.7 47 35.5
2008-05-23 10:04:29 51°37.12 2°51.153 47.5 10.8 47 32.9
2008-05-23 10:05:29 51°37.253 2°51.332 32.5 10.6 28 33
2008-05-23 10:06:29 51°37.425 2°51.409 12.6 11 4 35.1
2008-05-23 10:07:29 51°37.61 2°51.383 357.7 11.3 349 33.2
2008-05-23 10:08:29 51°37.787 2°51.259 342.6 11.9 333 35
2008-05-23 10:09:29 51°37.958 2°51.098 334.4 12.1 325 36.1
2008-05-23 10:10:29 51°38.12 2°50.905 333.3 12.1 323 30.8
2008-05-23 10:11:29 51°38.285 2°50.721 336.2 12 327 35.7
2008-05-23 10:12:29 51°38.452 2°50.542 334.3 12 326 35.9
2008-05-23 10:13:29 51°38.62 2°50.363 334.6 12 327 37
2008-05-23 10:14:29 51°38.786 2°50.188 335.7 11.9 328 37.8
2008-05-23 10:15:29 51°38.956 2°50.029 338.8 11.7 331 36.8
2008-05-23 10:16:29 51°39.122 2°49.864 335.6 11.7 329 36
2008-05-23 10:17:29 51°39.295 2°49.777 11.5 10.5 11 35.9
2008-05-23 10:18:29 51°39.474 2°49.806 6.2 11 2 35.4
2008-05-23 10:19:29 51°39.657 2°49.818 7.6 11.1 2 36.7
2008-05-23 10:20:29 51°39.838 2°49.839 8 11 3 35.7
2008-05-23 10:21:29 51°40.02 2°49.86 10.1 10.9 6 37.2
2008-05-23 10:22:29 51°40.201 2°49.892 9.3 10.9 6 37.9
2008-05-23 10:23:29 51°40.379 2°49.932 13.1 10.8 8 36.6
2008-05-23 10:24:29 51°40.557 2°49.974 12.6 10.8 9 36.7
2008-05-23 10:25:29 51°40.737 2°50.023 12.2 10.9 11 36.7
2008-05-23 10:26:29 51°40.912 2°50.085 22.3 10.5 27 35.9
2008-05-23 10:27:29 51°40.942 2°50.34 100.9 11.6 114 37.6
2008-05-23 10:28:29 51°40.83 2°50.613 115 12.3 123 38.4
2008-05-23 10:29:29 51°40.713 2°50.886 115.6 12.5 125 40
2008-05-23 10:30:29 51°40.604 2°51.163 114.7 12.3 124 39.1
2008-05-23 10:31:29 51°40.461 2°51.407 127.3 12.6 136 36.5
2008-05-23 10:32:29 51°40.311 2°51.64 127.8 12.6 139 30.4
2008-05-23 10:33:29 51°40.166 2°51.879 121.8 12.4 131 33.4
2008-05-23 10:34:29 51°40.031 2°52.129 120.6 12.4 131 32
2008-05-23 10:35:29 51°39.901 2°52.38 121.1 12.2 130 31.9
2008-05-23 10:36:29 51°39.768 2°52.626 121.4 12.3 134 32.1
2008-05-23 10:37:29 51°39.631 2°52.869 122.5 12.4 132 30.1
2008-05-23 10:38:29 51°39.497 2°53.118 122.5 12.4 134 33.9
2008-05-23 10:39:29 51°39.36 2°53.362 122.9 12.3 132 34.1
2008-05-23 10:40:29 51°39.227 2°53.61 120.4 12.1 131 33.6
2008-05-23 10:41:29 51°39.093 2°53.857 122 12.3 134 29.3
2008-05-23 10:42:29 51°38.955 2°54.1 124.5 12.3 131 32.4
2008-05-23 10:43:29 51°38.816 2°54.344 123 12.3 132 31.8
2008-05-23 10:44:29 51°38.683 2°54.595 120.5 12.2 128 31.1
2008-05-23 10:45:29 51°38.547 2°54.845 122.7 12.5 131 31
2008-05-23 10:46:29 51°38.412 2°55.097 124 12.4 131 28.4
2008-05-23 10:47:29 51°38.26 2°55.333 128.6 12.7 136 24.7
2008-05-23 10:48:29 51°38.108 2°55.567 126.7 12.7 137 24.2
2008-05-23 10:49:29 51°37.957 2°55.806 128.4 12.8 136 23.6
2008-05-23 10:50:29 51°37.788 2°56.017 144.5 13.2 157 22.7
2008-05-23 10:51:29 51°37.568 2°56.079 177 13.9 185 22
2008-05-23 10:52:29 51°37.347 2°55.978 205.3 14 210 19.6
2008-05-23 10:53:29 51°37.169 2°55.747 231.1 13.9 229 23.4
2008-05-23 10:54:29 51°37.065 2°55.425 252.2 13.4 248 20.5
2008-05-23 10:55:29 51°36.965 2°55.099 246 13.6 242 22
2008-05-23 10:56:29 51°36.861 2°54.775 247.4 13.8 241 18.8
2008-05-23 10:57:29 51°36.751 2°54.454 244.6 13.7 241 22.3
2008-05-23 10:58:29 51°36.644 2°54.131 246.3 13.7 244 22.5
2008-05-23 10:59:29 51°36.54 2°53.807 247.7 13.6 243 20.2
2008-05-23 11:00:29 51°36.436 2°53.483 246.4 13.6 243 21.8
2008-05-23 11:01:29 51°36.333 2°53.159 247.3 13.7 245 22.8
2008-05-23 11:02:29 51°36.232 2°52.834 246.3 13.6 244 22.9
2008-05-23 11:03:29 51°36.129 2°52.512 241.6 13.5 236 24
2008-05-23 11:04:29 51°35.959 2°52.277 209.1 13.6 208 24.2
2008-05-23 11:05:29 51°35.741 2°52.188 183 13.6 184 23.5
2008-05-23 11:06:29 51°35.522 2°52.241 159.8 13.4 165 31.3
2008-05-23 11:07:29 51°35.309 2°52.337 157.3 13.3 165 34.5
2008-05-23 11:08:29 51°35.094 2°52.413 159.2 13 168 35.8
2008-05-23 11:09:29 51°34.889 2°52.505 150.1 12.7 158 34.8
2008-05-23 11:10:29 51°34.737 2°52.71 118.4 11.7 126 34.9
2008-05-23 11:11:29 51°34.678 2°52.985 82.3 10.4 86 36
2008-05-23 11:12:29 51°34.746 2°53.235 53.5 10.5 53 35.5
2008-05-23 11:13:29 51°34.848 2°53.467 55 10.6 57 34
2008-05-23 11:14:29 51°34.938 2°53.711 58.9 10.7 62 32.8
2008-05-23 11:15:29 51°35.024 2°53.96 55.7 10.7 58 33.3
2008-05-23 11:16:29 51°35.117 2°54.206 57 10.8 61 34.3
2008-05-23 11:17:29 51°35.202 2°54.461 57.4 10.8 60 34.5
2008-05-23 11:18:29 51°35.291 2°54.712 57.4 10.8 61 33.7
2008-05-23 11:19:29 51°35.375 2°54.969 60 10.9 63 31.1
2008-05-23 11:20:29 51°35.459 2°55.226 58.9 11 63 33.6
2008-05-23 11:21:29 51°35.538 2°55.489 60.4 10.9 62 31.1
2008-05-23 11:22:29 51°35.621 2°55.747 60.4 10.8 64 32.2
2008-05-23 11:23:29 51°35.704 2°56.006 58.1 10.8 61 34
2008-05-23 11:24:29 51°35.779 2°56.269 68.1 10.9 75 31.5
2008-05-23 11:25:29 51°35.776 2°56.57 87.3 11.5 95 34.5
2008-05-23 11:26:29 51°35.69 2°56.842 121.1 11.9 132 34.8
2008-05-23 11:27:29 51°35.506 2°56.976 162.7 12.9 176 34.4
2008-05-23 11:28:29 51°35.298 2°56.882 204.6 13.6 211 35
2008-05-23 11:29:29 51°35.113 2°56.667 212.1 13.7 216 33.8
2008-05-23 11:30:29 51°34.923 2°56.462 207.3 13.6 213 33.1
2008-05-23 11:31:29 51°34.73 2°56.268 207 13.8 211 33.3
2008-05-23 11:32:29 51°34.539 2°56.065 207.9 13.7 214 32.5
2008-05-23 11:33:29 51°34.353 2°55.85 213.4 13.7 215 32.4
2008-05-23 11:34:29 51°34.166 2°55.634 211 14 216 30
2008-05-23 11:35:29 51°33.975 2°55.431 207.9 13.8 212 29.7
2008-05-23 11:36:29 51°33.783 2°55.228 209.5 13.9 217 27.6
2008-05-23 11:37:29 51°33.593 2°55.022 210.4 13.7 212 27.6
2008-05-23 11:38:29 51°33.403 2°54.82 210.1 13.7 211 25.7
2008-05-23 11:39:29 51°33.214 2°54.612 212.4 13.6 213 27
2008-05-23 11:40:29 51°33.023 2°54.414 210.3 13.9 213 23.8
2008-05-23 11:41:29 51°32.831 2°54.24 188.4 12.4 185 24.7
2008-05-23 11:42:29 51°32.645 2°54.368 143.6 12.8 150 25
2008-05-23 11:43:29 51°32.457 2°54.535 144.3 12.9 151 22.6
2008-05-23 11:44:29 51°32.268 2°54.704 144.6 13.1 151 22.3
2008-05-23 11:45:29 51°32.077 2°54.868 145.1 13.1 152 19.4
2008-05-23 11:46:29 51°31.886 2°55.033 145.1 13 152 19.8
2008-05-23 11:47:29 51°31.699 2°55.209 143.5 13.1 149 19.2
2008-05-23 11:48:29 51°31.512 2°55.389 144.3 13.2 149 19.4
2008-05-23 11:49:29 51°31.319 2°55.554 154.1 13.2 160 19.1
2008-05-23 11:50:29 51°31.099 2°55.585 179.9 13.5 183 20.4
2008-05-23 11:51:29 51°30.877 2°55.562 182.6 13.1 184 34.5
2008-05-23 11:52:29 51°30.663 2°55.495 191.5 13.1 192 38.6
2008-05-23 11:53:29 51°30.45 2°55.439 186.3 12.9 187 36.4
2008-05-23 11:54:29 51°30.234 2°55.411 181.5 13.1 185 33.3
2008-05-23 11:55:29 51°30.023 2°55.381 183.3 13.1 184 30.2
2008-05-23 11:56:29 51°29.804 2°55.355 183.4 13.3 186 29.9
2008-05-23 11:57:29 51°29.583 2°55.316 183.8 13.6 190 28.5
2008-05-23 11:58:29 51°29.36 2°55.277 181.7 13.3 185 27
2008-05-23 11:59:29 51°29.137 2°55.235 186.7 13.6 191 25.3
2008-05-23 12:00:29 51°28.916 2°55.172 187.4 13.5 190 25
2008-05-23 12:01:29 51°28.695 2°55.115 187.9 13.5 190 23
2008-05-23 12:02:29 51°28.473 2°55.056 187.3 13.4 189 22
2008-05-23 12:03:29 51°28.252 2°55.011 185 13.3 187 23
2008-05-23 12:04:29 51°28.032 2°54.953 189.9 13.3 191 25.5
2008-05-23 12:05:29 51°27.815 2°54.887 190 13.2 191 28.5
2008-05-23 12:06:29 51°27.599 2°54.832 187.6 13 188 29.2
2008-05-23 12:07:29 51°27.384 2°54.778 188 13 189 30
2008-05-23 12:08:29 51°27.169 2°54.706 191.9 13.2 193 30.5
2008-05-23 12:09:29 51°26.953 2°54.65 185 13 186 28.5
2008-05-23 12:10:29 51°26.735 2°54.596 188 13.3 188 24.6
2008-05-23 12:11:29 51°26.516 2°54.546 187.1 13.2 189 22.6
2008-05-23 12:12:29 51°26.299 2°54.493 187.3 13.3 188 24.9
2008-05-23 12:13:29 51°26.082 2°54.44 186.7 13.2 188 24.4
2008-05-23 12:14:29 51°25.863 2°54.401 185 13.2 186 24
2008-05-23 12:15:29 51°25.645 2°54.339 191 13.3 191 22.9
2008-05-23 12:16:29 51°25.426 2°54.281 188 13.3 188 21.3
2008-05-23 12:17:29 51°25.208 2°54.224 188.6 13.2 187 22.5
2008-05-23 12:18:29 51°24.991 2°54.165 189.9 13.1 190 21.8
2008-05-23 12:19:29 51°24.776 2°54.098 189.4 13.1 188 18.6
2008-05-23 12:20:29 51°24.56 2°54.05 188.2 13.1 187 17.6
2008-05-23 12:21:29 51°24.344 2°54 187.3 13.1 190 21.2
2008-05-23 12:22:29 51°24.133 2°53.921 195.2 13 196 22.8
2008-05-23 12:23:29 51°23.923 2°53.848 188.6 12.7 189 22.3
2008-05-23 12:24:29 51°23.714 2°53.806 188 12.6 188 22
2008-05-23 12:25:29 51°23.506 2°53.77 184.7 12.6 184 21.7
2008-05-23 12:26:29 51°23.298 2°53.73 187.9 12.6 189 21.6
2008-05-23 12:27:29 51°23.09 2°53.693 184.7 12.7 185 22.3
2008-05-23 12:28:29 51°22.883 2°53.661 188.2 12.5 188 23.2
2008-05-23 12:29:29 51°22.677 2°53.608 189.3 12.4 188 24.1
2008-05-23 12:30:29 51°22.47 2°53.568 187.3 12.5 185 24.1
2008-05-23 12:31:29 51°22.264 2°53.527 187.9 12.4 187 23.1
2008-05-23 12:32:29 51°22.057 2°53.476 190.1 12.5 191 21.5
2008-05-23 12:33:29 51°21.854 2°53.416 189.1 12.4 190 20.3
2008-05-23 12:34:29 51°21.651 2°53.354 189.3 12.5 190 18.4
2008-05-23 12:35:29 51°21.445 2°53.298 188.7 12.6 189 17
2008-05-23 12:36:29 51°21.24 2°53.24 188 12.5 188 17.2
2008-05-23 12:37:29 51°21.036 2°53.186 188.6 12.4 191 17.6
2008-05-23 12:38:29 51°20.836 2°53.106 191.7 12.2 193 17.9
2008-05-23 12:39:29 51°20.635 2°53.037 191.2 12.4 194 18
2008-05-23 12:40:29 51°20.435 2°52.959 191 12.3 192 18
2008-05-23 12:41:29 51°20.234 2°52.897 189.9 12.3 191 17.9
2008-05-23 12:42:29 51°20.032 2°52.833 190.9 12.4 192 17.8
2008-05-23 12:43:29 51°19.833 2°52.767 191.4 12.2 191 17.5
2008-05-23 12:44:29 51°19.632 2°52.703 191.2 12.4 194 17.1
2008-05-23 12:45:29 51°19.433 2°52.632 190.4 12.2 190 16.6
2008-05-23 12:46:29 51°19.232 2°52.57 190.8 12.4 192 15.8
2008-05-23 12:47:29 51°19.032 2°52.492 193.8 12.4 195 15.1
2008-05-23 12:48:29 51°18.833 2°52.416 192.9 12.2 192 14.4
2008-05-23 12:49:29 51°18.63 2°52.39 178.5 12.4 177 13.7
2008-05-23 12:50:29 51°18.425 2°52.395 179.8 12.5 180 13.2
2008-05-23 12:51:29 51°18.221 2°52.391 180 12 178 13
2008-05-23 12:52:29 51°18.018 2°52.403 179.2 12.1 180 12.7
2008-05-23 12:53:29 51°17.817 2°52.412 179.7 12.1 178 12.5
2008-05-23 12:54:29 51°17.617 2°52.419 181.3 11.9 180 12.4
2008-05-23 12:55:29 51°17.418 2°52.409 182.1 12 182 12.5
2008-05-23 12:56:29 51°17.22 2°52.424 178.2 11.8 174 12.3
2008-05-23 12:57:29 51°17.024 2°52.497 166.8 12.3 164 11.9
2008-05-23 12:58:29 51°16.83 2°52.585 166.5 12 164 12.1
2008-05-23 12:59:29 51°16.636 2°52.687 163 12.3 161 13.5
2008-05-23 13:00:29 51°16.446 2°52.813 158.7 12.3 156 14.1
2008-05-23 13:01:29 51°16.262 2°52.958 156.3 12.2 154 14.1
2008-05-23 13:02:29 51°16.078 2°53.101 157.7 12.2 155 14.1
2008-05-23 13:03:29 51°15.891 2°53.233 161.1 12.2 158 13.8
2008-05-23 13:04:29 51°15.705 2°53.36 157.4 12.1 154 13.4
2008-05-23 13:05:29 51°15.522 2°53.496 159.9 12.2 156 13
2008-05-23 13:06:29 51°15.336 2°53.624 158.9 12.4 155 12.4
2008-05-23 13:07:29 51°15.152 2°53.762 159 12.1 155 12.1
2008-05-23 13:08:29 51°14.98 2°53.928 146.3 12.4 142 12.1
2008-05-23 13:09:29 51°14.815 2°54.122 147.9 12.1 141 12.1
2008-05-23 13:10:29 51°14.679 2°54.375 130.5 12.6 125 12.8
2008-05-23 13:11:29 51°14.557 2°54.654 129.1 12.8 124 13
2008-05-23 13:12:29 51°14.434 2°54.93 131.3 12.9 124 13.4
2008-05-23 13:13:29 51°14.301 2°55.187 129.8 12 131 12.6
2008-05-23 13:14:33 51°14.176 2°55.368 144.8 8 146 -999
2008-05-23 13:15:33 51°14.09 2°55.452 148.7 4.6 151 -999
2008-05-23 13:16:33 51°14.033 2°55.511 147.2 3.9 146 -999
2008-05-23 13:17:33 51°13.939 2°55.577 159.6 6.2 161 -999
2008-05-23 13:18:33 51°13.853 2°55.625 158.9 5.1 160 -999
2008-05-23 13:19:33 51°13.78 2°55.678 141.7 4.5 147 -999